Pagrindinis puslapis
METAR-TAF:

METAR-TAF

Oro uostai :

Širazas, Iranas

platuma: 29-32N, ilguma: 052-35E, Aukštis: 1486 m

Dabartinis oras

Ataskaita buvo paskelbta 28 minutes, ne 00:30 UTC
Ramus vėjas
Temperatūra 9°C
Drėgmė 87%
Slėgis 1014 hPa
Matomumas: 8000 m
Išsisklaidę debesys ne aukštis 4000 ft

METAR: OISS 010030Z 00000KT 8000 SCT040 09/07 Q1014 A2995

Laikas: 05:28 (00:58 UTC)

Prognozė

Ataskaita buvo paskelbta 1 valandą ir 58 minutes, ne 23:00 UTC
Prognozė galioja nuo 01 metu 00 UTC su 02 metu 06 UTC
Vėjas 8 kt iš Vakarų
Matomumas: 7000 m
Mažai debesys ne aukštis 3500 ft
Išsisklaidę debesys ne aukštis 10000 ft
Laikinai
nuo 01 metu 08 UTC su 01 metu 12 UTC
Vėjas 10 kt iš Vakarų su gūsio iki 20 kt

TAF: OISS 312300Z 0100/0206 27008KT 7000 FEW035 SCT100 TEMPO 0108/0112 26010G20KT

Orai ataskaitas ir orų prognozės (METAR, TAF).

turimą stotys yra geltonos ir raudonos taškus žemėlapyje.

Perkelti pele per norėdami pamatyti stoties vardą.

Tada spustelėkite, norėdami matyti oro stebėjimo ir prognozės.

Norėdami pakeisti žemėlapį: spustelėkite ant žalios mygtukų su juodo kryžiaus žemyn,; žalią mygtuką su brūkšneliu, jei norite nutolinti; arba žalių rodyklių gretimoms žemėlapius.


METAR-TAF: